createdAt,value
2022-11-12T00:05:58.256Z,56.40
2022-11-12T00:11:55.257Z,57.63
2022-11-12T00:17:50.260Z,55.63
2022-11-12T00:23:45.272Z,64.38
2022-11-12T00:29:41.260Z,74.45
2022-11-12T00:35:36.277Z,66.75
2022-11-12T00:41:31.268Z,66.78
2022-11-12T00:47:27.285Z,66.05
2022-11-12T00:53:22.273Z,60.20
2022-11-12T00:59:17.282Z,60.83
2022-11-12T01:05:13.296Z,65.40
2022-11-12T01:11:01.292Z,63.70
2022-11-12T01:16:56.258Z,62.83
2022-11-12T01:22:52.253Z,59.50
2022-11-12T01:28:48.248Z,60.30
2022-11-12T01:34:36.265Z,66.55
2022-11-12T01:40:33.268Z,65.38
2022-11-12T01:46:33.264Z,65.70
2022-11-12T01:52:34.259Z,61.38
2022-11-12T01:58:34.255Z,59.47
2022-11-12T02:04:29.263Z,53.47
2022-11-12T02:10:24.269Z,59.10
2022-11-12T02:16:22.245Z,56.65
2022-11-12T02:22:18.260Z,56.17
2022-11-12T02:28:14.244Z,60.88
2022-11-12T02:34:09.231Z,84.53
2022-11-12T02:40:05.246Z,65.97
2022-11-12T02:46:00.248Z,64.63
2022-11-12T02:51:48.248Z,53.67
2022-11-12T02:57:44.233Z,52.95
2022-11-12T03:04:23.264Z,52.30
2022-11-12T03:10:19.234Z,61.95
2022-11-12T03:16:15.230Z,63.00
2022-11-12T03:22:10.245Z,60.70
2022-11-12T03:28:04.248Z,62.03
2022-11-12T03:34:00.213Z,69.95
2022-11-12T03:39:55.224Z,66.80
2022-11-12T03:45:51.346Z,64.70
2022-11-12T03:51:40.224Z,62.00
2022-11-12T03:57:35.226Z,63.50
2022-11-12T04:03:30.248Z,62.97
2022-11-12T04:09:28.237Z,58.08
2022-11-12T04:15:17.232Z,54.47
2022-11-12T04:21:29.230Z,55.60
2022-11-12T04:27:27.224Z,55.50
2022-11-12T04:33:31.262Z,61.20
2022-11-12T04:39:26.225Z,60.40
2022-11-12T04:45:18.242Z,60.85
2022-11-12T04:51:35.223Z,63.72
2022-11-12T04:57:30.204Z,60.80
2022-11-12T05:03:19.240Z,53.97
2022-11-12T05:09:14.212Z,52.65
2022-11-12T05:15:09.231Z,53.10
2022-11-12T05:21:28.215Z,56.85
2022-11-12T05:27:26.199Z,53.65
2022-11-12T05:33:22.228Z,48.00
2022-11-12T05:39:19.223Z,58.83
2022-11-12T05:45:15.238Z,71.72
2022-11-12T05:51:14.118Z,65.20
2022-11-12T05:57:03.289Z,52.33
2022-11-12T06:02:58.274Z,61.28
2022-11-12T06:08:53.211Z,54.40
2022-11-12T06:14:49.206Z,63.10
2022-11-12T06:20:44.254Z,61.67
2022-11-12T06:26:40.195Z,53.88
2022-11-12T06:32:36.212Z,58.65
2022-11-12T06:38:31.217Z,49.78
2022-11-12T06:44:26.219Z,54.22
2022-11-12T06:50:23.218Z,58.85
2022-11-12T06:56:20.218Z,58.90
2022-11-12T07:02:15.193Z,55.42
2022-11-12T07:08:11.206Z,54.03
2022-11-12T07:14:06.208Z,41.30
2022-11-12T07:19:56.279Z,41.33
2022-11-12T07:25:55.188Z,39.17
2022-11-12T07:31:50.205Z,36.50
2022-11-12T07:37:45.204Z,44.60
2022-11-12T07:43:43.186Z,36.47
2022-11-12T07:49:38.190Z,41.53
2022-11-12T07:55:33.221Z,45.90
2022-11-12T08:01:39.256Z,34.10
2022-11-12T08:07:27.280Z,39.15
2022-11-12T08:13:15.204Z,36.85
2022-11-12T08:19:11.199Z,32.70
2022-11-12T08:25:07.206Z,36.38
2022-11-12T08:31:02.196Z,32.13
2022-11-12T08:36:58.189Z,33.53
2022-11-12T08:42:54.178Z,33.88
2022-11-12T08:48:49.218Z,29.08
2022-11-12T08:54:45.193Z,32.22
2022-11-12T09:00:40.206Z,23.45
2022-11-12T09:06:28.189Z,24.98
2022-11-12T09:12:26.172Z,23.25
2022-11-12T09:18:23.194Z,25.63
2022-11-12T09:24:18.257Z,30.90
2022-11-12T09:30:15.174Z,33.63
2022-11-12T09:36:11.211Z,27.33
2022-11-12T09:42:06.189Z,24.67
2022-11-12T09:48:09.185Z,21.13
2022-11-12T09:54:09.208Z,18.17
2022-11-12T10:06:07.196Z,20.00
2022-11-12T10:12:39.259Z,18.88
2022-11-12T10:18:44.226Z,19.30
2022-11-12T10:24:48.179Z,18.27
2022-11-12T10:30:43.149Z,19.77
2022-11-12T10:36:37.262Z,18.15
2022-11-12T10:42:29.174Z,35.58
2022-11-12T10:48:46.568Z,28.83
2022-11-12T10:54:54.016Z,33.20
2022-11-12T11:01:06.181Z,27.02
2022-11-12T11:07:35.181Z,22.05
2022-11-12T11:13:34.163Z,21.83
2022-11-12T11:19:30.204Z,18.07
2022-11-12T11:25:37.273Z,18.00
2022-11-12T11:31:37.172Z,19.08
2022-11-12T11:37:40.188Z,19.02
2022-11-12T11:43:59.532Z,42.97
2022-11-12T11:50:19.217Z,16.67
2022-11-12T11:56:18.195Z,22.77
2022-11-12T12:02:37.231Z,18.33
2022-11-12T12:08:40.158Z,10.80
2022-11-12T12:14:47.174Z,19.02
2022-11-12T12:20:50.200Z,43.75
2022-11-12T12:26:52.166Z,18.50
2022-11-12T12:32:46.173Z,33.70
2022-11-12T12:38:50.176Z,13.85
2022-11-12T12:45:08.185Z,17.13
2022-11-12T12:51:07.217Z,10.88
2022-11-12T12:57:03.215Z,27.90
2022-11-12T13:02:59.222Z,18.13
2022-11-12T13:08:57.189Z,19.75
2022-11-12T13:15:34.191Z,23.42
2022-11-12T13:21:23.206Z,26.40
2022-11-12T13:27:19.219Z,29.57
2022-11-12T13:33:15.191Z,16.00
2022-11-12T13:39:21.221Z,19.55
2022-11-12T13:45:20.189Z,17.90
2022-11-12T13:51:18.241Z,16.52
2022-11-12T13:57:40.185Z,16.08
2022-11-12T14:03:30.217Z,19.90
2022-11-12T14:16:49.741Z,24.27
2022-11-12T14:22:46.184Z,51.78
2022-11-12T14:28:44.181Z,18.80
2022-11-12T14:34:43.276Z,21.00
2022-11-12T14:40:43.205Z,18.48
2022-11-12T14:46:41.205Z,21.07
2022-11-12T14:52:42.200Z,25.10
2022-11-12T14:58:41.175Z,33.13
2022-11-12T15:04:39.241Z,38.20
2022-11-12T15:10:49.200Z,41.05
2022-11-12T15:16:47.170Z,39.40
2022-11-12T15:22:35.186Z,44.05
2022-11-12T15:28:48.665Z,97.05
2022-11-12T15:34:59.168Z,129.52
2022-11-12T15:40:57.169Z,94.75
2022-11-12T15:46:46.167Z,113.63
2022-11-12T15:52:42.181Z,102.30
2022-11-12T15:58:47.291Z,95.00
2022-11-12T16:04:43.206Z,91.22
2022-11-12T16:10:33.192Z,98.68
2022-11-12T16:16:28.175Z,104.20
2022-11-12T16:22:23.141Z,119.80
2022-11-12T16:28:31.202Z,110.88
2022-11-12T16:34:27.138Z,119.82
2022-11-12T16:40:28.166Z,116.55
2022-11-12T16:46:40.172Z,113.00
2022-11-12T16:52:35.139Z,117.18
2022-11-12T16:58:30.141Z,122.90
2022-11-12T17:04:26.152Z,131.90
2022-11-12T17:10:22.164Z,138.98
2022-11-12T17:16:17.163Z,221.68
2022-11-12T17:22:13.156Z,140.00
2022-11-12T17:28:08.155Z,108.15
2022-11-12T17:34:04.382Z,120.57
2022-11-12T17:40:00.124Z,98.80
2022-11-12T17:46:04.146Z,116.00
2022-11-12T17:51:52.129Z,111.28
2022-11-12T17:57:42.167Z,115.60
2022-11-12T18:03:37.165Z,127.72
2022-11-12T18:09:32.164Z,115.45
2022-11-12T18:15:28.162Z,112.97
2022-11-12T18:21:24.146Z,133.32
2022-11-12T18:27:19.170Z,121.35
2022-11-12T18:33:17.246Z,115.60
2022-11-12T18:39:12.163Z,123.15
2022-11-12T18:45:07.131Z,117.95
2022-11-12T18:50:56.145Z,107.20
2022-11-12T18:56:52.126Z,112.32
2022-11-12T19:02:40.175Z,111.45
2022-11-12T19:08:36.144Z,126.82
2022-11-12T19:14:31.137Z,176.75
2022-11-12T19:20:26.122Z,151.60
2022-11-12T19:26:26.133Z,142.65
2022-11-12T19:32:22.172Z,193.70
2022-11-12T19:38:18.143Z,177.70
2022-11-12T19:44:14.119Z,902.97
2022-11-12T19:50:11.396Z,548.67
2022-11-12T19:56:07.115Z,244.10
2022-11-12T21:55:52.831Z,113.00
2022-11-12T22:01:49.843Z,116.68
2022-11-12T22:07:44.797Z,108.38
2022-11-12T22:13:33.810Z,93.63
2022-11-12T22:19:22.824Z,100.07
2022-11-12T22:25:18.813Z,129.68
2022-11-12T22:31:18.821Z,145.82
2022-11-12T22:37:13.818Z,119.53
2022-11-12T22:43:08.810Z,136.20
2022-11-12T22:49:05.837Z,119.40
2022-11-12T22:55:01.824Z,124.07
2022-11-12T23:00:56.936Z,192.23
2022-11-12T23:06:52.886Z,145.15
2022-11-12T23:12:47.827Z,133.52
2022-11-12T23:18:42.808Z,115.97
2022-11-12T23:24:31.813Z,125.03
2022-11-12T23:30:20.827Z,115.25
2022-11-12T23:36:19.817Z,115.17
2022-11-12T23:42:15.808Z,111.30
2022-11-12T23:48:11.790Z,116.07
2022-11-12T23:54:06.821Z,109.88
